sensor_id;sensor_type;location;lat;lon;timestamp;P1;durP1;ratioP1;P2;durP2;ratioP2
24277;SDS011;12394;42.692;23.314;2024-01-15T00:02:24;185.50;;;99.43;;
24277;SDS011;12394;42.692;23.314;2024-01-15T00:04:49;207.37;;;104.07;;
24277;SDS011;12394;42.692;23.314;2024-01-15T00:07:15;203.27;;;102.13;;
24277;SDS011;12394;42.692;23.314;2024-01-15T00:09:40;196.43;;;101.07;;
24277;SDS011;12394;42.692;23.314;2024-01-15T00:12:06;190.80;;;100.93;;
24277;SDS011;12394;42.692;23.314;2024-01-15T00:14:31;191.90;;;102.23;;
24277;SDS011;12394;42.692;23.314;2024-01-15T00:16:57;187.63;;;99.03;;
24277;SDS011;12394;42.692;23.314;2024-01-15T00:19:22;190.33;;;101.67;;
24277;SDS011;12394;42.692;23.314;2024-01-15T00:21:49;198.53;;;101.50;;
24277;SDS011;12394;42.692;23.314;2024-01-15T00:24:14;194.70;;;100.60;;
24277;SDS011;12394;42.692;23.314;2024-01-15T00:26:40;188.73;;;104.77;;
24277;SDS011;12394;42.692;23.314;2024-01-15T00:29:08;203.53;;;105.40;;
24277;SDS011;12394;42.692;23.314;2024-01-15T00:31:34;185.27;;;99.60;;
24277;SDS011;12394;42.692;23.314;2024-01-15T00:34:00;193.77;;;99.17;;
24277;SDS011;12394;42.692;23.314;2024-01-15T00:36:25;179.10;;;93.30;;
24277;SDS011;12394;42.692;23.314;2024-01-15T00:38:51;160.17;;;84.93;;
24277;SDS011;12394;42.692;23.314;2024-01-15T00:41:17;151.40;;;81.23;;
24277;SDS011;12394;42.692;23.314;2024-01-15T00:43:43;160.67;;;87.83;;
24277;SDS011;12394;42.692;23.314;2024-01-15T00:46:10;179.27;;;92.93;;
24277;SDS011;12394;42.692;23.314;2024-01-15T00:48:36;181.13;;;96.20;;
24277;SDS011;12394;42.692;23.314;2024-01-15T00:51:02;178.23;;;95.33;;
24277;SDS011;12394;42.692;23.314;2024-01-15T00:53:29;166.83;;;92.53;;
24277;SDS011;12394;42.692;23.314;2024-01-15T00:55:54;183.30;;;94.67;;
24277;SDS011;12394;42.692;23.314;2024-01-15T00:58:20;171.53;;;90.47;;
24277;SDS011;12394;42.692;23.314;2024-01-15T01:00:45;164.00;;;86.60;;
24277;SDS011;12394;42.692;23.314;2024-01-15T01:03:11;153.13;;;75.93;;
24277;SDS011;12394;42.692;23.314;2024-01-15T01:05:36;142.30;;;71.63;;
24277;SDS011;12394;42.692;23.314;2024-01-15T01:08:02;123.10;;;66.03;;
24277;SDS011;12394;42.692;23.314;2024-01-15T01:10:28;129.60;;;68.73;;
24277;SDS011;12394;42.692;23.314;2024-01-15T01:12:54;151.87;;;76.70;;
24277;SDS011;12394;42.692;23.314;2024-01-15T01:15:19;141.20;;;74.47;;
24277;SDS011;12394;42.692;23.314;2024-01-15T01:17:45;131.20;;;69.17;;
24277;SDS011;12394;42.692;23.314;2024-01-15T01:20:11;113.97;;;59.13;;
24277;SDS011;12394;42.692;23.314;2024-01-15T01:22:36;104.70;;;55.90;;
24277;SDS011;12394;42.692;23.314;2024-01-15T01:25:02;117.33;;;60.53;;
24277;SDS011;12394;42.692;23.314;2024-01-15T01:27:28;120.87;;;63.07;;
24277;SDS011;12394;42.692;23.314;2024-01-15T01:29:53;126.33;;;67.20;;
24277;SDS011;12394;42.692;23.314;2024-01-15T01:32:19;128.77;;;69.20;;
24277;SDS011;12394;42.692;23.314;2024-01-15T01:34:45;119.90;;;61.27;;
24277;SDS011;12394;42.692;23.314;2024-01-15T01:37:11;130.57;;;66.87;;
24277;SDS011;12394;42.692;23.314;2024-01-15T01:39:40;142.80;;;71.10;;
24277;SDS011;12394;42.692;23.314;2024-01-15T01:42:06;155.97;;;82.67;;
24277;SDS011;12394;42.692;23.314;2024-01-15T01:44:32;165.80;;;88.80;;
24277;SDS011;12394;42.692;23.314;2024-01-15T01:46:58;173.33;;;92.70;;
24277;SDS011;12394;42.692;23.314;2024-01-15T01:49:24;169.23;;;89.27;;
24277;SDS011;12394;42.692;23.314;2024-01-15T01:51:51;174.40;;;89.67;;
24277;SDS011;12394;42.692;23.314;2024-01-15T01:54:18;163.63;;;88.97;;
24277;SDS011;12394;42.692;23.314;2024-01-15T01:56:45;172.77;;;89.10;;
24277;SDS011;12394;42.692;23.314;2024-01-15T01:59:13;156.30;;;80.20;;
24277;SDS011;12394;42.692;23.314;2024-01-15T02:01:39;125.53;;;63.63;;
24277;SDS011;12394;42.692;23.314;2024-01-15T02:04:06;120.17;;;62.97;;
24277;SDS011;12394;42.692;23.314;2024-01-15T02:06:33;139.53;;;72.57;;
24277;SDS011;12394;42.692;23.314;2024-01-15T02:08:59;131.40;;;69.03;;
24277;SDS011;12394;42.692;23.314;2024-01-15T02:11:24;138.40;;;70.80;;
24277;SDS011;12394;42.692;23.314;2024-01-15T02:13:50;138.50;;;70.57;;
24277;SDS011;12394;42.692;23.314;2024-01-15T02:16:16;141.43;;;71.60;;
24277;SDS011;12394;42.692;23.314;2024-01-15T02:18:42;151.67;;;74.17;;
24277;SDS011;12394;42.692;23.314;2024-01-15T02:21:08;142.53;;;72.23;;
24277;SDS011;12394;42.692;23.314;2024-01-15T02:23:34;151.33;;;73.50;;
24277;SDS011;12394;42.692;23.314;2024-01-15T02:26:00;130.83;;;70.03;;
24277;SDS011;12394;42.692;23.314;2024-01-15T02:28:26;144.40;;;72.77;;
24277;SDS011;12394;42.692;23.314;2024-01-15T02:30:51;146.57;;;73.73;;
24277;SDS011;12394;42.692;23.314;2024-01-15T02:33:17;140.20;;;75.03;;
24277;SDS011;12394;42.692;23.314;2024-01-15T02:35:42;139.00;;;70.27;;
24277;SDS011;12394;42.692;23.314;2024-01-15T02:38:08;113.00;;;59.60;;
24277;SDS011;12394;42.692;23.314;2024-01-15T02:40:34;113.37;;;57.33;;
24277;SDS011;12394;42.692;23.314;2024-01-15T02:43:00;121.67;;;65.73;;
24277;SDS011;12394;42.692;23.314;2024-01-15T02:45:25;106.20;;;56.10;;
24277;SDS011;12394;42.692;23.314;2024-01-15T02:47:51;96.77;;;51.20;;
24277;SDS011;12394;42.692;23.314;2024-01-15T02:50:16;104.40;;;53.17;;
24277;SDS011;12394;42.692;23.314;2024-01-15T02:52:42;92.10;;;50.97;;
24277;SDS011;12394;42.692;23.314;2024-01-15T02:55:08;102.40;;;54.60;;
24277;SDS011;12394;42.692;23.314;2024-01-15T02:57:34;97.67;;;54.97;;
24277;SDS011;12394;42.692;23.314;2024-01-15T03:00:00;134.43;;;64.67;;
24277;SDS011;12394;42.692;23.314;2024-01-15T03:02:25;131.33;;;69.13;;
24277;SDS011;12394;42.692;23.314;2024-01-15T03:04:51;132.00;;;71.10;;
24277;SDS011;12394;42.692;23.314;2024-01-15T03:07:17;144.30;;;76.37;;
24277;SDS011;12394;42.692;23.314;2024-01-15T03:09:42;142.03;;;74.83;;
24277;SDS011;12394;42.692;23.314;2024-01-15T03:12:08;142.63;;;74.30;;
24277;SDS011;12394;42.692;23.314;2024-01-15T03:14:34;137.70;;;73.63;;
24277;SDS011;12394;42.692;23.314;2024-01-15T03:17:00;134.17;;;69.90;;
24277;SDS011;12394;42.692;23.314;2024-01-15T03:19:26;142.40;;;71.53;;
24277;SDS011;12394;42.692;23.314;2024-01-15T03:21:51;143.40;;;71.27;;
24277;SDS011;12394;42.692;23.314;2024-01-15T03:24:17;136.57;;;70.40;;
24277;SDS011;12394;42.692;23.314;2024-01-15T03:26:42;123.87;;;68.43;;
24277;SDS011;12394;42.692;23.314;2024-01-15T03:29:08;138.33;;;69.67;;
24277;SDS011;12394;42.692;23.314;2024-01-15T03:31:33;135.67;;;65.53;;
24277;SDS011;12394;42.692;23.314;2024-01-15T03:33:59;123.93;;;63.17;;
24277;SDS011;12394;42.692;23.314;2024-01-15T03:36:24;125.27;;;63.17;;
24277;SDS011;12394;42.692;23.314;2024-01-15T03:38:50;105.30;;;54.20;;
24277;SDS011;12394;42.692;23.314;2024-01-15T03:41:15;116.80;;;59.07;;
24277;SDS011;12394;42.692;23.314;2024-01-15T03:43:41;117.77;;;56.07;;
24277;SDS011;12394;42.692;23.314;2024-01-15T03:46:06;107.70;;;51.17;;
24277;SDS011;12394;42.692;23.314;2024-01-15T03:48:32;110.73;;;56.80;;
24277;SDS011;12394;42.692;23.314;2024-01-15T03:50:57;117.83;;;61.23;;
24277;SDS011;12394;42.692;23.314;2024-01-15T03:53:23;131.77;;;65.80;;
24277;SDS011;12394;42.692;23.314;2024-01-15T03:55:49;128.00;;;63.63;;
24277;SDS011;12394;42.692;23.314;2024-01-15T03:58:15;125.07;;;60.70;;
24277;SDS011;12394;42.692;23.314;2024-01-15T04:00:41;123.90;;;58.70;;
24277;SDS011;12394;42.692;23.314;2024-01-15T04:03:07;115.57;;;57.07;;
24277;SDS011;12394;42.692;23.314;2024-01-15T04:05:33;100.37;;;50.73;;
24277;SDS011;12394;42.692;23.314;2024-01-15T04:07:58;94.87;;;50.03;;
24277;SDS011;12394;42.692;23.314;2024-01-15T04:10:23;108.77;;;49.33;;
24277;SDS011;12394;42.692;23.314;2024-01-15T04:12:49;98.20;;;48.63;;
24277;SDS011;12394;42.692;23.314;2024-01-15T04:15:15;83.10;;;43.70;;
24277;SDS011;12394;42.692;23.314;2024-01-15T04:17:40;100.93;;;48.87;;
24277;SDS011;12394;42.692;23.314;2024-01-15T04:20:06;93.37;;;47.67;;
24277;SDS011;12394;42.692;23.314;2024-01-15T04:22:32;107.60;;;47.97;;
24277;SDS011;12394;42.692;23.314;2024-01-15T04:24:59;124.90;;;52.43;;
24277;SDS011;12394;42.692;23.314;2024-01-15T04:27:24;118.50;;;53.13;;
24277;SDS011;12394;42.692;23.314;2024-01-15T04:29:50;148.50;;;61.10;;
24277;SDS011;12394;42.692;23.314;2024-01-15T04:32:15;126.57;;;57.47;;
24277;SDS011;12394;42.692;23.314;2024-01-15T04:34:41;116.27;;;56.20;;
24277;SDS011;12394;42.692;23.314;2024-01-15T04:37:06;125.13;;;62.10;;
24277;SDS011;12394;42.692;23.314;2024-01-15T04:39:32;115.10;;;58.40;;
24277;SDS011;12394;42.692;23.314;2024-01-15T04:41:57;118.10;;;60.73;;
24277;SDS011;12394;42.692;23.314;2024-01-15T04:44:23;112.27;;;60.47;;
24277;SDS011;12394;42.692;23.314;2024-01-15T04:46:48;119.77;;;58.93;;
24277;SDS011;12394;42.692;23.314;2024-01-15T04:49:14;126.00;;;62.37;;
24277;SDS011;12394;42.692;23.314;2024-01-15T04:51:39;127.83;;;63.87;;
24277;SDS011;12394;42.692;23.314;2024-01-15T04:54:05;123.57;;;62.23;;
24277;SDS011;12394;42.692;23.314;2024-01-15T04:56:30;134.47;;;64.17;;
24277;SDS011;12394;42.692;23.314;2024-01-15T04:58:56;165.47;;;79.00;;
24277;SDS011;12394;42.692;23.314;2024-01-15T05:01:21;151.90;;;66.03;;
24277;SDS011;12394;42.692;23.314;2024-01-15T05:03:47;136.17;;;65.13;;
24277;SDS011;12394;42.692;23.314;2024-01-15T05:06:12;138.53;;;67.87;;
24277;SDS011;12394;42.692;23.314;2024-01-15T05:08:38;131.50;;;63.40;;
24277;SDS011;12394;42.692;23.314;2024-01-15T05:11:03;130.20;;;67.40;;
24277;SDS011;12394;42.692;23.314;2024-01-15T05:13:29;134.57;;;66.00;;
24277;SDS011;12394;42.692;23.314;2024-01-15T05:15:54;116.87;;;60.90;;
24277;SDS011;12394;42.692;23.314;2024-01-15T05:18:20;159.77;;;74.50;;
24277;SDS011;12394;42.692;23.314;2024-01-15T05:20:45;103.53;;;50.27;;
24277;SDS011;12394;42.692;23.314;2024-01-15T05:23:11;95.13;;;46.77;;
24277;SDS011;12394;42.692;23.314;2024-01-15T05:25:36;98.43;;;51.60;;
24277;SDS011;12394;42.692;23.314;2024-01-15T05:28:02;88.40;;;47.67;;
24277;SDS011;12394;42.692;23.314;2024-01-15T05:30:28;95.03;;;48.77;;
24277;SDS011;12394;42.692;23.314;2024-01-15T05:32:53;101.60;;;45.67;;
24277;SDS011;12394;42.692;23.314;2024-01-15T05:35:19;93.90;;;49.43;;
24277;SDS011;12394;42.692;23.314;2024-01-15T05:37:45;90.60;;;46.77;;
24277;SDS011;12394;42.692;23.314;2024-01-15T05:40:13;93.10;;;48.57;;
24277;SDS011;12394;42.692;23.314;2024-01-15T05:42:39;98.57;;;51.20;;
24277;SDS011;12394;42.692;23.314;2024-01-15T05:45:05;92.23;;;51.37;;
24277;SDS011;12394;42.692;23.314;2024-01-15T05:47:31;99.93;;;51.50;;
24277;SDS011;12394;42.692;23.314;2024-01-15T05:49:57;94.47;;;49.63;;
24277;SDS011;12394;42.692;23.314;2024-01-15T05:52:23;104.93;;;54.83;;
24277;SDS011;12394;42.692;23.314;2024-01-15T05:54:49;114.43;;;58.80;;
24277;SDS011;12394;42.692;23.314;2024-01-15T05:57:15;112.73;;;59.50;;
24277;SDS011;12394;42.692;23.314;2024-01-15T05:59:40;113.63;;;59.60;;
24277;SDS011;12394;42.692;23.314;2024-01-15T06:02:06;127.70;;;65.30;;
24277;SDS011;12394;42.692;23.314;2024-01-15T06:04:31;133.97;;;67.83;;
24277;SDS011;12394;42.692;23.314;2024-01-15T06:06:57;123.03;;;66.80;;
24277;SDS011;12394;42.692;23.314;2024-01-15T06:09:22;119.60;;;63.87;;
24277;SDS011;12394;42.692;23.314;2024-01-15T06:11:48;139.47;;;71.67;;
24277;SDS011;12394;42.692;23.314;2024-01-15T06:14:13;135.17;;;70.07;;
24277;SDS011;12394;42.692;23.314;2024-01-15T06:16:39;142.43;;;72.67;;
24277;SDS011;12394;42.692;23.314;2024-01-15T06:19:04;141.50;;;73.47;;
24277;SDS011;12394;42.692;23.314;2024-01-15T06:21:30;141.33;;;72.50;;
24277;SDS011;12394;42.692;23.314;2024-01-15T06:23:55;129.53;;;69.97;;
24277;SDS011;12394;42.692;23.314;2024-01-15T06:26:23;141.70;;;68.13;;
24277;SDS011;12394;42.692;23.314;2024-01-15T06:28:49;128.83;;;68.63;;
24277;SDS011;12394;42.692;23.314;2024-01-15T06:31:15;137.03;;;72.17;;
24277;SDS011;12394;42.692;23.314;2024-01-15T06:33:41;135.43;;;69.43;;
24277;SDS011;12394;42.692;23.314;2024-01-15T06:36:06;138.80;;;71.13;;
24277;SDS011;12394;42.692;23.314;2024-01-15T06:38:32;133.13;;;71.70;;
24277;SDS011;12394;42.692;23.314;2024-01-15T06:40:58;135.23;;;72.27;;
24277;SDS011;12394;42.692;23.314;2024-01-15T06:43:23;119.27;;;70.30;;
24277;SDS011;12394;42.692;23.314;2024-01-15T06:45:49;129.40;;;70.27;;
24277;SDS011;12394;42.692;23.314;2024-01-15T06:48:14;139.87;;;68.40;;
24277;SDS011;12394;42.692;23.314;2024-01-15T06:50:44;129.00;;;70.13;;
24277;SDS011;12394;42.692;23.314;2024-01-15T06:53:10;118.17;;;67.13;;
24277;SDS011;12394;42.692;23.314;2024-01-15T06:55:35;128.53;;;64.73;;
24277;SDS011;12394;42.692;23.314;2024-01-15T06:58:01;116.87;;;63.43;;
24277;SDS011;12394;42.692;23.314;2024-01-15T07:00:26;117.33;;;62.53;;
24277;SDS011;12394;42.692;23.314;2024-01-15T07:02:52;128.40;;;63.37;;
24277;SDS011;12394;42.692;23.314;2024-01-15T07:05:18;112.53;;;59.67;;
24277;SDS011;12394;42.692;23.314;2024-01-15T07:07:45;120.10;;;64.23;;
24277;SDS011;12394;42.692;23.314;2024-01-15T07:10:10;108.43;;;57.50;;
24277;SDS011;12394;42.692;23.314;2024-01-15T07:12:36;106.33;;;59.33;;
24277;SDS011;12394;42.692;23.314;2024-01-15T07:15:01;109.23;;;58.93;;
24277;SDS011;12394;42.692;23.314;2024-01-15T07:17:27;112.43;;;58.90;;
24277;SDS011;12394;42.692;23.314;2024-01-15T07:19:53;109.03;;;59.47;;
24277;SDS011;12394;42.692;23.314;2024-01-15T07:22:18;118.90;;;60.47;;
24277;SDS011;12394;42.692;23.314;2024-01-15T07:24:44;121.03;;;65.20;;
24277;SDS011;12394;42.692;23.314;2024-01-15T07:27:10;126.33;;;64.67;;
24277;SDS011;12394;42.692;23.314;2024-01-15T07:29:36;105.83;;;60.63;;
24277;SDS011;12394;42.692;23.314;2024-01-15T07:32:02;119.47;;;61.33;;
24277;SDS011;12394;42.692;23.314;2024-01-15T07:34:29;115.93;;;62.60;;
24277;SDS011;12394;42.692;23.314;2024-01-15T07:36:54;119.20;;;61.37;;
24277;SDS011;12394;42.692;23.314;2024-01-15T07:39:20;113.23;;;60.93;;
24277;SDS011;12394;42.692;23.314;2024-01-15T07:41:47;116.80;;;66.17;;
24277;SDS011;12394;42.692;23.314;2024-01-15T07:44:13;122.87;;;64.60;;
24277;SDS011;12394;42.692;23.314;2024-01-15T07:46:38;115.17;;;62.43;;
24277;SDS011;12394;42.692;23.314;2024-01-15T07:49:05;117.00;;;64.90;;
24277;SDS011;12394;42.692;23.314;2024-01-15T07:51:30;127.67;;;64.83;;
24277;SDS011;12394;42.692;23.314;2024-01-15T07:53:56;116.93;;;62.83;;
24277;SDS011;12394;42.692;23.314;2024-01-15T07:56:21;107.37;;;61.77;;
24277;SDS011;12394;42.692;23.314;2024-01-15T07:58:47;119.80;;;64.50;;
24277;SDS011;12394;42.692;23.314;2024-01-15T08:01:12;124.60;;;63.73;;
24277;SDS011;12394;42.692;23.314;2024-01-15T08:03:38;97.13;;;54.13;;
24277;SDS011;12394;42.692;23.314;2024-01-15T08:06:05;91.43;;;47.70;;
24277;SDS011;12394;42.692;23.314;2024-01-15T08:08:30;88.67;;;46.40;;
24277;SDS011;12394;42.692;23.314;2024-01-15T08:10:56;84.40;;;47.47;;
24277;SDS011;12394;42.692;23.314;2024-01-15T08:13:21;87.20;;;48.30;;
24277;SDS011;12394;42.692;23.314;2024-01-15T08:15:47;91.90;;;46.93;;
24277;SDS011;12394;42.692;23.314;2024-01-15T08:18:12;66.73;;;39.93;;
24277;SDS011;12394;42.692;23.314;2024-01-15T08:20:38;64.53;;;36.80;;
24277;SDS011;12394;42.692;23.314;2024-01-15T08:23:04;67.23;;;36.87;;
24277;SDS011;12394;42.692;23.314;2024-01-15T08:25:29;65.10;;;38.03;;
24277;SDS011;12394;42.692;23.314;2024-01-15T08:27:56;67.37;;;39.20;;
24277;SDS011;12394;42.692;23.314;2024-01-15T08:30:22;104.70;;;56.93;;
24277;SDS011;12394;42.692;23.314;2024-01-15T08:32:52;108.73;;;60.43;;
24277;SDS011;12394;42.692;23.314;2024-01-15T08:35:20;119.07;;;56.03;;
24277;SDS011;12394;42.692;23.314;2024-01-15T08:37:50;73.47;;;39.30;;
24277;SDS011;12394;42.692;23.314;2024-01-15T08:40:16;75.37;;;34.43;;
24277;SDS011;12394;42.692;23.314;2024-01-15T08:42:42;68.73;;;37.10;;
24277;SDS011;12394;42.692;23.314;2024-01-15T08:45:08;76.67;;;37.63;;
24277;SDS011;12394;42.692;23.314;2024-01-15T08:47:34;67.57;;;36.10;;
24277;SDS011;12394;42.692;23.314;2024-01-15T08:50:00;103.60;;;39.90;;
24277;SDS011;12394;42.692;23.314;2024-01-15T08:52:26;92.63;;;43.00;;
24277;SDS011;12394;42.692;23.314;2024-01-15T08:54:51;112.40;;;58.13;;
24277;SDS011;12394;42.692;23.314;2024-01-15T08:57:17;120.97;;;61.63;;
24277;SDS011;12394;42.692;23.314;2024-01-15T08:59:42;114.77;;;67.93;;
24277;SDS011;12394;42.692;23.314;2024-01-15T09:02:08;134.03;;;71.27;;
24277;SDS011;12394;42.692;23.314;2024-01-15T09:04:33;121.10;;;67.63;;
24277;SDS011;12394;42.692;23.314;2024-01-15T09:06:59;118.73;;;67.07;;
24277;SDS011;12394;42.692;23.314;2024-01-15T09:09:25;136.80;;;71.07;;
24277;SDS011;12394;42.692;23.314;2024-01-15T09:11:51;121.73;;;68.83;;
24277;SDS011;12394;42.692;23.314;2024-01-15T09:14:16;136.73;;;70.03;;
24277;SDS011;12394;42.692;23.314;2024-01-15T09:16:42;120.27;;;65.93;;
24277;SDS011;12394;42.692;23.314;2024-01-15T09:19:08;107.67;;;62.93;;
24277;SDS011;12394;42.692;23.314;2024-01-15T09:21:33;124.90;;;71.17;;
24277;SDS011;12394;42.692;23.314;2024-01-15T09:23:59;130.37;;;71.03;;
24277;SDS011;12394;42.692;23.314;2024-01-15T09:26:24;129.33;;;71.53;;
24277;SDS011;12394;42.692;23.314;2024-01-15T09:28:50;132.80;;;73.63;;
24277;SDS011;12394;42.692;23.314;2024-01-15T09:31:15;156.00;;;76.90;;
24277;SDS011;12394;42.692;23.314;2024-01-15T09:33:42;130.87;;;77.83;;
24277;SDS011;12394;42.692;23.314;2024-01-15T09:36:09;143.13;;;81.90;;
24277;SDS011;12394;42.692;23.314;2024-01-15T09:38:34;146.50;;;84.73;;
24277;SDS011;12394;42.692;23.314;2024-01-15T09:41:00;161.07;;;85.40;;
24277;SDS011;12394;42.692;23.314;2024-01-15T09:43:25;138.60;;;79.33;;
24277;SDS011;12394;42.692;23.314;2024-01-15T09:45:51;153.90;;;80.73;;
24277;SDS011;12394;42.692;23.314;2024-01-15T09:48:18;154.33;;;76.27;;
24277;SDS011;12394;42.692;23.314;2024-01-15T09:50:44;139.63;;;79.53;;
24277;SDS011;12394;42.692;23.314;2024-01-15T09:53:10;135.90;;;78.80;;
24277;SDS011;12394;42.692;23.314;2024-01-15T09:55:36;133.77;;;76.60;;
24277;SDS011;12394;42.692;23.314;2024-01-15T09:58:03;134.63;;;79.47;;
24277;SDS011;12394;42.692;23.314;2024-01-15T10:00:29;127.90;;;74.30;;
24277;SDS011;12394;42.692;23.314;2024-01-15T10:02:57;135.67;;;72.40;;
24277;SDS011;12394;42.692;23.314;2024-01-15T10:05:25;124.30;;;70.07;;
24277;SDS011;12394;42.692;23.314;2024-01-15T10:07:52;132.27;;;68.47;;
24277;SDS011;12394;42.692;23.314;2024-01-15T10:10:19;119.87;;;66.07;;
24277;SDS011;12394;42.692;23.314;2024-01-15T10:12:47;122.97;;;69.13;;
24277;SDS011;12394;42.692;23.314;2024-01-15T10:15:13;91.63;;;54.03;;
24277;SDS011;12394;42.692;23.314;2024-01-15T10:17:39;94.00;;;53.37;;
24277;SDS011;12394;42.692;23.314;2024-01-15T10:20:08;98.93;;;54.60;;
24277;SDS011;12394;42.692;23.314;2024-01-15T10:22:35;100.00;;;59.53;;
24277;SDS011;12394;42.692;23.314;2024-01-15T10:25:04;89.33;;;55.40;;
24277;SDS011;12394;42.692;23.314;2024-01-15T10:27:30;69.63;;;43.20;;
24277;SDS011;12394;42.692;23.314;2024-01-15T10:30:15;86.60;;;48.60;;
24277;SDS011;12394;42.692;23.314;2024-01-15T10:32:41;73.37;;;43.87;;
24277;SDS011;12394;42.692;23.314;2024-01-15T10:35:22;73.30;;;45.03;;
24277;SDS011;12394;42.692;23.314;2024-01-15T10:37:47;73.00;;;41.70;;
24277;SDS011;12394;42.692;23.314;2024-01-15T10:40:13;55.23;;;37.37;;
24277;SDS011;12394;42.692;23.314;2024-01-15T10:42:39;58.03;;;37.60;;
24277;SDS011;12394;42.692;23.314;2024-01-15T10:45:04;64.93;;;39.73;;
24277;SDS011;12394;42.692;23.314;2024-01-15T10:47:30;68.90;;;36.47;;
24277;SDS011;12394;42.692;23.314;2024-01-15T10:49:55;58.47;;;36.20;;
24277;SDS011;12394;42.692;23.314;2024-01-15T10:52:21;98.40;;;63.90;;
24277;SDS011;12394;42.692;23.314;2024-01-15T10:54:47;43.43;;;28.57;;
24277;SDS011;12394;42.692;23.314;2024-01-15T10:57:13;43.00;;;28.40;;
24277;SDS011;12394;42.692;23.314;2024-01-15T10:59:41;73.77;;;35.63;;
24277;SDS011;12394;42.692;23.314;2024-01-15T11:02:06;71.13;;;42.60;;
24277;SDS011;12394;42.692;23.314;2024-01-15T11:04:33;58.97;;;36.20;;
24277;SDS011;12394;42.692;23.314;2024-01-15T11:06:59;79.50;;;30.53;;
24277;SDS011;12394;42.692;23.314;2024-01-15T11:09:25;48.63;;;27.97;;
24277;SDS011;12394;42.692;23.314;2024-01-15T11:12:06;49.33;;;28.37;;
24277;SDS011;12394;42.692;23.314;2024-01-15T11:14:39;47.97;;;23.93;;
24277;SDS011;12394;42.692;23.314;2024-01-15T11:17:09;37.33;;;23.80;;
24277;SDS011;12394;42.692;23.314;2024-01-15T11:19:42;42.27;;;25.80;;
24277;SDS011;12394;42.692;23.314;2024-01-15T11:25:01;45.87;;;27.87;;
24277;SDS011;12394;42.692;23.314;2024-01-15T11:27:49;43.27;;;27.03;;
24277;SDS011;12394;42.692;23.314;2024-01-15T11:30:16;52.63;;;28.70;;
24277;SDS011;12394;42.692;23.314;2024-01-15T11:32:42;45.43;;;23.83;;
24277;SDS011;12394;42.692;23.314;2024-01-15T11:35:11;40.67;;;23.70;;
24277;SDS011;12394;42.692;23.314;2024-01-15T11:40:13;84.80;;;26.60;;
24277;SDS011;12394;42.692;23.314;2024-01-15T11:42:39;51.67;;;23.67;;
24277;SDS011;12394;42.692;23.314;2024-01-15T11:45:04;42.20;;;24.70;;
24277;SDS011;12394;42.692;23.314;2024-01-15T11:47:40;47.00;;;25.03;;
24277;SDS011;12394;42.692;23.314;2024-01-15T11:50:30;46.00;;;23.03;;
24277;SDS011;12394;42.692;23.314;2024-01-15T11:52:59;49.63;;;24.43;;
24277;SDS011;12394;42.692;23.314;2024-01-15T11:55:27;37.77;;;22.47;;
24277;SDS011;12394;42.692;23.314;2024-01-15T11:58:00;39.97;;;23.13;;
24277;SDS011;12394;42.692;23.314;2024-01-15T12:00:27;42.17;;;22.70;;
24277;SDS011;12394;42.692;23.314;2024-01-15T12:02:54;53.10;;;22.97;;
24277;SDS011;12394;42.692;23.314;2024-01-15T12:05:21;50.80;;;25.27;;
24277;SDS011;12394;42.692;23.314;2024-01-15T12:07:47;41.87;;;23.60;;
24277;SDS011;12394;42.692;23.314;2024-01-15T12:10:15;53.63;;;26.17;;
24277;SDS011;12394;42.692;23.314;2024-01-15T12:15:21;48.00;;;23.87;;
24277;SDS011;12394;42.692;23.314;2024-01-15T12:17:46;41.67;;;22.63;;
24277;SDS011;12394;42.692;23.314;2024-01-15T12:20:15;31.03;;;22.23;;
24277;SDS011;12394;42.692;23.314;2024-01-15T12:22:43;44.77;;;24.47;;
24277;SDS011;12394;42.692;23.314;2024-01-15T12:25:09;45.93;;;26.40;;
24277;SDS011;12394;42.692;23.314;2024-01-15T12:27:35;46.40;;;27.30;;
24277;SDS011;12394;42.692;23.314;2024-01-15T12:30:01;39.60;;;24.30;;
24277;SDS011;12394;42.692;23.314;2024-01-15T12:32:26;52.03;;;23.60;;
24277;SDS011;12394;42.692;23.314;2024-01-15T12:34:52;41.37;;;22.70;;
24277;SDS011;12394;42.692;23.314;2024-01-15T12:37:18;39.80;;;22.73;;
24277;SDS011;12394;42.692;23.314;2024-01-15T12:39:44;39.43;;;24.73;;
24277;SDS011;12394;42.692;23.314;2024-01-15T12:42:10;41.93;;;22.97;;
24277;SDS011;12394;42.692;23.314;2024-01-15T12:44:35;47.53;;;25.03;;
24277;SDS011;12394;42.692;23.314;2024-01-15T12:47:03;47.00;;;23.80;;
24277;SDS011;12394;42.692;23.314;2024-01-15T12:49:30;55.57;;;26.70;;
24277;SDS011;12394;42.692;23.314;2024-01-15T12:51:58;44.27;;;23.90;;
24277;SDS011;12394;42.692;23.314;2024-01-15T12:54:24;47.73;;;25.27;;
24277;SDS011;12394;42.692;23.314;2024-01-15T12:56:51;43.30;;;24.60;;
24277;SDS011;12394;42.692;23.314;2024-01-15T12:59:18;46.77;;;24.73;;
24277;SDS011;12394;42.692;23.314;2024-01-15T13:01:44;44.37;;;24.97;;
24277;SDS011;12394;42.692;23.314;2024-01-15T13:04:11;42.47;;;24.93;;
24277;SDS011;12394;42.692;23.314;2024-01-15T13:06:37;39.33;;;25.40;;
24277;SDS011;12394;42.692;23.314;2024-01-15T13:09:04;39.87;;;23.73;;
24277;SDS011;12394;42.692;23.314;2024-01-15T13:11:35;49.50;;;24.23;;
24277;SDS011;12394;42.692;23.314;2024-01-15T13:14:00;39.63;;;24.87;;
24277;SDS011;12394;42.692;23.314;2024-01-15T13:16:26;52.20;;;27.07;;
24277;SDS011;12394;42.692;23.314;2024-01-15T13:18:54;45.70;;;25.30;;
24277;SDS011;12394;42.692;23.314;2024-01-15T13:21:21;48.33;;;25.03;;
24277;SDS011;12394;42.692;23.314;2024-01-15T13:23:47;45.50;;;25.97;;
24277;SDS011;12394;42.692;23.314;2024-01-15T13:26:13;49.37;;;25.43;;
24277;SDS011;12394;42.692;23.314;2024-01-15T13:28:39;53.27;;;27.50;;
24277;SDS011;12394;42.692;23.314;2024-01-15T13:31:04;48.47;;;25.73;;
24277;SDS011;12394;42.692;23.314;2024-01-15T13:33:30;45.57;;;26.77;;
24277;SDS011;12394;42.692;23.314;2024-01-15T13:35:56;40.43;;;24.80;;
24277;SDS011;12394;42.692;23.314;2024-01-15T13:38:21;44.30;;;25.40;;
24277;SDS011;12394;42.692;23.314;2024-01-15T13:40:46;57.93;;;26.80;;
24277;SDS011;12394;42.692;23.314;2024-01-15T13:43:12;40.83;;;23.03;;
24277;SDS011;12394;42.692;23.314;2024-01-15T13:45:39;37.37;;;21.60;;
24277;SDS011;12394;42.692;23.314;2024-01-15T13:48:06;33.87;;;21.60;;
24277;SDS011;12394;42.692;23.314;2024-01-15T13:50:33;44.20;;;20.43;;
24277;SDS011;12394;42.692;23.314;2024-01-15T13:53:02;37.03;;;21.03;;
24277;SDS011;12394;42.692;23.314;2024-01-15T13:55:28;35.37;;;21.63;;
24277;SDS011;12394;42.692;23.314;2024-01-15T13:57:54;38.97;;;21.87;;
24277;SDS011;12394;42.692;23.314;2024-01-15T14:00:20;41.10;;;23.50;;
24277;SDS011;12394;42.692;23.314;2024-01-15T14:02:46;45.13;;;23.33;;
24277;SDS011;12394;42.692;23.314;2024-01-15T14:05:12;35.57;;;21.30;;